Santa Rosa, CA

9:09 PM PDT on July 23, 2016 (GMT -0700)
APRSWXNET | | Change Station

Elev 95 ft 38.44 °N, 122.77 °W | Updated 27 days ago

Clear
Clear
60 °F
Feels Like 60 °F
N
4
Wind Variable Wind from South
Gusts mph

Today
High -- | Low -- °F
--% Chance of Precip.
Yesterday
High -- | Low -- °F
Precip. -- in
Pressure 29.80 in
Visibility 9.0 miles
Clouds Clear
Dew Point 51 °F
Humidity 72%
Rainfall in
Snow Depth Not available.
6:06 AM 8:28 PM
Waning Gibbous, 80% visible
METAR KSTS 240353Z AUTO 17005KT 9SM CLR 21/11 A2982 RMK AO2 SLP090 T02060111
Pressure 29.80 in
Visibility 9.0 miles
Clouds Clear
Dew Point 51 °F
Humidity 72%
Rainfall in
Snow Depth Not available.
6:06 AM 8:28 PM
Waning Gibbous, 80% visible
METAR KSTS 240353Z AUTO 17005KT 9SM CLR 21/11 A2982 RMK AO2 SLP090 T02060111

10-Day Weather Forecast

Almanac

Astronomy

Jul. 23, 2016 Rise Set
Actual Time
Civil Twilight
Nautical Twilight
Astronomical Twilight
Moon
Length of Visible Light
Length of Day
Tomorrow will be .
, % of the Moon is Illuminated

Today's Extremes

State Highs State Lows

Community

WunderPhotos

Upload Photos

1,927,025 photos uploaded!

WunderBlog® & News

Nearby

Air Quality

  Air Quality AQ Index Pollutant
Not available.

Snow Depth

Station Depth Elevation

Earthquake Activity

City Distance Mag. Time & Date
Minimum magnitude displayed is 2.5.

Coastal Water Temperatures

Place Temperature

Stations

Nearby Weather Stations

Station Location Temp. Windchill Dew Point Humidity Wind Precip. Elev Updated Type
                   

Watches & Warnings

There are currently no watches in effect.